Anderson, California
Current Conditions -  °F | °C
As of 6:41 PM on Wednesday 17 Dec 2014 (Local Time) from KRDD Reporting Station
Heavy Rain Heavy Rain  
Wind Chill: 11°   Ceiling: 2800
Heat Index: 11°   Visibility: 5mi
Dew Point:   Wind: 14mph
Humidity: 92%   Direction: 180°S
Pressure: 30.01"   Gusts: NA
Location:  40.45°N, 122.3°W
Report Text: KRDD 180241Z 18012KT 5SM +RA BR SCT015 BKN028 OVC043 11/09 A3001 RMK AO2 P0004 T01060094 $
Loading
Personal Weather Stations






























Interactive Weather Map New forecast layout! Learn more

10-Day Weather Forecast

Advertisements
Track Severe Weather on mobile